createdAt,value
2023-01-30T00:01:46.054Z,47.88
2023-01-30T00:04:16.110Z,55.65
2023-01-30T00:06:43.909Z,54.40
2023-01-30T00:09:17.545Z,55.65
2023-01-30T00:11:44.303Z,52.53
2023-01-30T00:14:10.989Z,55.90
2023-01-30T00:16:37.875Z,52.88
2023-01-30T00:19:04.726Z,54.75
2023-01-30T00:21:31.370Z,51.42
2023-01-30T00:23:59.948Z,56.50
2023-01-30T00:26:27.182Z,49.65
2023-01-30T00:28:53.928Z,50.20
2023-01-30T00:31:20.662Z,52.13
2023-01-30T00:33:47.393Z,48.08
2023-01-30T00:36:14.054Z,49.60
2023-01-30T00:38:40.787Z,48.00
2023-01-30T00:41:07.693Z,49.45
2023-01-30T00:43:52.890Z,38.58
2023-01-30T00:46:46.737Z,46.33
2023-01-30T00:49:13.592Z,35.47
2023-01-30T00:51:40.409Z,48.78
2023-01-30T00:54:07.343Z,47.83
2023-01-30T00:56:34.363Z,47.00
2023-01-30T00:59:01.397Z,45.22
2023-01-30T01:01:28.368Z,44.20
2023-01-30T01:03:55.061Z,42.47
2023-01-30T01:06:21.770Z,41.72
2023-01-30T01:08:49.126Z,44.90
2023-01-30T01:11:24.293Z,39.35
2023-01-30T01:13:55.932Z,38.78
2023-01-30T01:16:24.287Z,40.72
2023-01-30T01:18:51.433Z,42.08
2023-01-30T01:21:20.223Z,38.15
2023-01-30T01:23:53.026Z,39.35
2023-01-30T01:26:20.638Z,35.92
2023-01-30T01:28:49.026Z,36.58
2023-01-30T01:31:17.418Z,35.53
2023-01-30T01:33:44.226Z,33.38
2023-01-30T01:36:12.296Z,37.25
2023-01-30T01:38:42.811Z,36.72
2023-01-30T01:41:12.698Z,30.88
2023-01-30T01:44:01.889Z,34.33
2023-01-30T01:46:54.795Z,34.13
2023-01-30T01:49:25.942Z,35.13
2023-01-30T01:52:05.504Z,30.98
2023-01-30T01:54:42.548Z,34.95
2023-01-30T01:57:23.970Z,26.70
2023-01-30T01:59:56.896Z,35.83
2023-01-30T02:02:24.018Z,34.03
2023-01-30T02:05:05.005Z,35.97
2023-01-30T02:07:37.709Z,40.75
2023-01-30T02:10:06.965Z,37.78
2023-01-30T02:12:33.870Z,39.10
2023-01-30T02:15:01.427Z,36.80
2023-01-30T02:17:28.160Z,38.90
2023-01-30T02:20:09.819Z,30.90
2023-01-30T02:22:57.759Z,37.65
2023-01-30T02:25:36.653Z,34.13
2023-01-30T02:28:38.962Z,32.38
2023-01-30T02:31:22.781Z,36.58
2023-01-30T02:34:08.470Z,33.92
2023-01-30T02:36:41.442Z,39.67
2023-01-30T02:39:18.740Z,35.08
2023-01-30T02:42:03.861Z,31.40
2023-01-30T02:44:42.336Z,31.13
2023-01-30T02:47:25.647Z,35.08
2023-01-30T02:50:02.408Z,36.78
2023-01-30T02:52:30.553Z,32.47
2023-01-30T02:54:57.221Z,38.10
2023-01-30T02:57:25.324Z,30.58
2023-01-30T02:59:57.022Z,35.72
2023-01-30T03:02:50.709Z,32.03
2023-01-30T03:05:29.735Z,32.83
2023-01-30T03:08:24.705Z,33.85
2023-01-30T03:11:07.212Z,32.53
2023-01-30T03:14:06.829Z,31.83
2023-01-30T03:16:38.056Z,27.60
2023-01-30T03:19:07.153Z,31.27
2023-01-30T03:21:33.979Z,29.98
2023-01-30T03:24:00.717Z,32.67
2023-01-30T03:26:32.702Z,31.27
2023-01-30T03:31:27.149Z,27.00
2023-01-30T03:33:53.990Z,28.67
2023-01-30T03:36:21.120Z,23.85
2023-01-30T03:38:47.877Z,24.83
2023-01-30T03:41:14.621Z,26.23
2023-01-30T03:43:41.409Z,25.67
2023-01-30T03:46:08.101Z,25.73
2023-01-30T03:48:34.777Z,22.42
2023-01-30T03:51:02.153Z,19.00
2023-01-30T03:53:28.792Z,18.52
2023-01-30T03:55:55.454Z,19.00
2023-01-30T03:58:22.133Z,19.55
2023-01-30T04:00:48.875Z,19.27
2023-01-30T04:03:15.836Z,20.70
2023-01-30T04:05:43.768Z,18.90
2023-01-30T04:08:10.950Z,16.58
2023-01-30T04:10:37.566Z,16.42
2023-01-30T04:13:04.178Z,20.98
2023-01-30T04:15:30.834Z,18.60
2023-01-30T04:17:57.527Z,16.58
2023-01-30T04:20:24.818Z,18.88
2023-01-30T04:22:51.485Z,19.23
2023-01-30T04:25:19.275Z,15.55
2023-01-30T04:27:46.161Z,16.95
2023-01-30T04:30:12.943Z,15.88
2023-01-30T04:32:39.631Z,16.35
2023-01-30T04:35:06.645Z,14.00
2023-01-30T04:37:33.399Z,11.32
2023-01-30T04:40:00.105Z,9.90
2023-01-30T04:42:26.761Z,13.60
2023-01-30T04:44:53.406Z,10.02
2023-01-30T04:47:20.106Z,11.30
2023-01-30T04:49:46.822Z,12.15
2023-01-30T04:52:13.505Z,12.00
2023-01-30T04:54:40.187Z,12.00
2023-01-30T04:57:06.838Z,13.90
2023-01-30T04:59:33.580Z,12.57
2023-01-30T05:02:00.332Z,10.70
2023-01-30T05:04:27.143Z,10.20
2023-01-30T05:06:53.940Z,11.65
2023-01-30T05:09:20.660Z,10.32
2023-01-30T05:11:47.464Z,9.23
2023-01-30T05:14:14.297Z,9.32
2023-01-30T05:16:40.966Z,10.93
2023-01-30T05:19:07.694Z,8.18
2023-01-30T05:21:34.362Z,7.90
2023-01-30T05:24:01.010Z,9.57
2023-01-30T05:26:27.906Z,8.60
2023-01-30T05:28:56.694Z,6.40
2023-01-30T05:31:24.007Z,6.43
2023-01-30T05:33:52.429Z,10.63
2023-01-30T05:36:21.326Z,8.73
2023-01-30T05:38:48.219Z,5.40
2023-01-30T05:41:16.363Z,7.10
2023-01-30T05:43:43.487Z,5.03
2023-01-30T05:46:12.329Z,4.50
2023-01-30T05:48:39.401Z,10.80
2023-01-30T05:51:06.523Z,5.80
2023-01-30T05:53:37.297Z,6.53
2023-01-30T05:56:05.427Z,5.60
2023-01-30T05:58:33.276Z,4.93
2023-01-30T06:01:02.513Z,6.95
2023-01-30T06:03:29.520Z,8.02
2023-01-30T06:05:56.266Z,8.57
2023-01-30T06:08:23.899Z,10.20
2023-01-30T06:10:50.680Z,8.27
2023-01-30T06:13:17.469Z,8.07
2023-01-30T06:15:44.225Z,6.75
2023-01-30T06:18:11.042Z,9.30
2023-01-30T06:20:37.792Z,9.57
2023-01-30T06:23:04.435Z,8.55
2023-01-30T06:25:31.116Z,7.63
2023-01-30T06:27:57.732Z,9.38
2023-01-30T06:30:24.467Z,18.52
2023-01-30T06:32:51.737Z,12.90
2023-01-30T06:35:19.029Z,7.18
2023-01-30T06:37:46.273Z,12.23
2023-01-30T06:40:13.500Z,11.93
2023-01-30T06:42:45.204Z,13.68
2023-01-30T06:45:13.039Z,11.02
2023-01-30T06:47:54.537Z,15.18
2023-01-30T06:50:24.183Z,12.05
2023-01-30T06:52:51.930Z,18.38
2023-01-30T06:55:22.367Z,13.02
2023-01-30T06:57:49.651Z,13.80
2023-01-30T07:00:20.451Z,16.08
2023-01-30T07:02:47.481Z,12.68
2023-01-30T07:05:14.293Z,14.25
2023-01-30T07:07:40.997Z,14.63
2023-01-30T07:10:09.247Z,15.00
2023-01-30T07:12:36.794Z,12.18
2023-01-30T07:15:05.074Z,17.33
2023-01-30T07:17:32.238Z,14.02
2023-01-30T07:19:59.350Z,15.65
2023-01-30T07:22:26.109Z,8.02
2023-01-30T07:24:52.817Z,6.50
2023-01-30T07:27:19.494Z,5.35
2023-01-30T07:29:46.260Z,7.63
2023-01-30T07:32:18.487Z,6.30
2023-01-30T07:34:46.029Z,5.97
2023-01-30T07:37:12.930Z,8.88
2023-01-30T07:39:39.669Z,8.57
2023-01-30T07:42:06.429Z,7.80
2023-01-30T07:44:34.222Z,10.02
2023-01-30T07:47:01.239Z,9.13
2023-01-30T07:49:28.146Z,5.15
2023-01-30T07:51:54.950Z,8.63
2023-01-30T07:54:21.698Z,4.15
2023-01-30T07:56:48.333Z,6.15
2023-01-30T07:59:15.014Z,6.22
2023-01-30T08:01:41.724Z,4.07
2023-01-30T08:04:08.428Z,6.38
2023-01-30T08:06:39.088Z,6.80
2023-01-30T08:09:07.080Z,10.43
2023-01-30T08:11:34.561Z,11.77
2023-01-30T08:14:01.778Z,11.82
2023-01-30T08:16:28.774Z,13.20
2023-01-30T08:18:55.597Z,14.77
2023-01-30T08:21:22.371Z,17.83
2023-01-30T08:23:49.068Z,14.27
2023-01-30T08:26:15.823Z,17.42
2023-01-30T08:28:42.877Z,19.45
2023-01-30T08:31:14.365Z,17.13
2023-01-30T08:33:41.291Z,18.90
2023-01-30T08:36:08.600Z,15.75
2023-01-30T08:38:35.286Z,14.45
2023-01-30T08:41:04.908Z,11.52
2023-01-30T08:43:31.652Z,20.75
2023-01-30T08:45:58.611Z,21.40
2023-01-30T08:48:25.513Z,15.77
2023-01-30T08:50:56.156Z,16.10
2023-01-30T08:53:23.512Z,12.85
2023-01-30T08:55:51.952Z,22.10
2023-01-30T08:58:20.232Z,19.30
2023-01-30T09:00:48.530Z,18.65
2023-01-30T09:03:18.338Z,15.75
2023-01-30T09:05:45.301Z,15.32
2023-01-30T09:08:12.442Z,13.15
2023-01-30T09:10:39.163Z,15.13
2023-01-30T09:13:09.197Z,7.05
2023-01-30T09:15:36.140Z,4.93
2023-01-30T09:18:03.268Z,6.97
2023-01-30T09:20:30.086Z,8.63
2023-01-30T09:22:56.773Z,7.97
2023-01-30T09:25:23.673Z,12.00
2023-01-30T09:27:50.771Z,18.70
2023-01-30T09:30:18.168Z,20.27
2023-01-30T09:32:45.271Z,13.00
2023-01-30T09:35:12.468Z,9.73
2023-01-30T09:37:46.315Z,5.63
2023-01-30T09:40:17.523Z,5.85
2023-01-30T09:43:02.601Z,4.63
2023-01-30T09:45:37.708Z,4.38
2023-01-30T09:48:18.034Z,4.45
2023-01-30T09:51:11.890Z,4.55
2023-01-30T09:54:22.209Z,6.57
2023-01-30T09:57:20.420Z,2.47
2023-01-30T09:59:53.419Z,5.05
2023-01-30T10:02:45.167Z,7.72
2023-01-30T10:05:12.416Z,3.20
2023-01-30T10:07:51.647Z,4.53
2023-01-30T10:10:45.897Z,4.28
2023-01-30T10:13:34.418Z,6.95
2023-01-30T10:16:04.331Z,4.93
2023-01-30T10:19:18.157Z,5.18
2023-01-30T10:21:50.047Z,3.80
2023-01-30T10:24:38.177Z,3.67
2023-01-30T10:27:10.324Z,6.00
2023-01-30T10:29:39.785Z,6.15
2023-01-30T10:32:20.641Z,6.05
2023-01-30T10:34:53.895Z,6.18
2023-01-30T10:37:32.361Z,5.78
2023-01-30T10:40:18.821Z,5.10
2023-01-30T10:43:16.562Z,2.33
2023-01-30T10:46:15.698Z,5.13
2023-01-30T10:48:57.354Z,3.97
2023-01-30T10:51:48.345Z,6.43
2023-01-30T10:54:30.105Z,4.57
2023-01-30T10:57:17.228Z,3.53
2023-01-30T10:59:59.631Z,4.28
2023-01-30T11:03:04.137Z,5.30
2023-01-30T11:05:44.483Z,7.43
2023-01-30T11:08:19.803Z,7.75
2023-01-30T11:10:46.715Z,9.30
2023-01-30T11:13:17.964Z,10.15
2023-01-30T11:15:47.335Z,8.10
2023-01-30T11:18:50.950Z,8.90
2023-01-30T11:21:10.397Z,8.00
2023-01-30T11:23:42.774Z,10.85
2023-01-30T11:26:41.477Z,10.50
2023-01-30T11:29:24.210Z,12.85
2023-01-30T11:31:52.214Z,10.30
2023-01-30T11:34:21.958Z,11.27
2023-01-30T11:36:49.284Z,12.13
2023-01-30T11:39:20.441Z,10.98
2023-01-30T11:42:03.906Z,12.98
2023-01-30T11:44:36.046Z,13.07
2023-01-30T11:47:08.437Z,9.60
2023-01-30T11:50:01.508Z,13.63
2023-01-30T11:52:43.639Z,7.00
2023-01-30T11:55:14.895Z,11.52
2023-01-30T11:57:45.376Z,6.72
2023-01-30T12:00:22.401Z,7.88
2023-01-30T12:02:51.040Z,7.63
2023-01-30T12:05:55.513Z,5.13
2023-01-30T12:08:39.484Z,4.63
2023-01-30T12:11:25.151Z,5.30
2023-01-30T12:13:55.536Z,4.53
2023-01-30T12:16:48.859Z,2.30
2023-01-30T12:19:29.171Z,4.50
2023-01-30T12:22:18.979Z,6.65
2023-01-30T12:24:58.571Z,3.75
2023-01-30T12:27:48.510Z,4.32
2023-01-30T12:30:42.699Z,3.05
2023-01-30T12:33:14.430Z,4.20
2023-01-30T12:36:01.252Z,5.95
2023-01-30T12:38:47.923Z,7.10
2023-01-30T12:41:22.400Z,6.60
2023-01-30T12:44:07.579Z,8.90
2023-01-30T12:46:57.736Z,7.05
2023-01-30T12:50:21.231Z,7.45
2023-01-30T12:52:59.936Z,6.30
2023-01-30T12:56:00.898Z,4.40
2023-01-30T12:58:34.921Z,9.38
2023-01-30T13:01:27.916Z,8.68
2023-01-30T13:03:58.089Z,10.48
2023-01-30T13:07:07.598Z,6.43
2023-01-30T13:12:46.099Z,7.43
2023-01-30T13:15:19.760Z,8.98
2023-01-30T13:18:08.608Z,8.27
2023-01-30T13:20:47.639Z,7.15
2023-01-30T13:23:25.476Z,9.55
2023-01-30T13:26:12.778Z,6.72
2023-01-30T13:28:49.420Z,7.78
2023-01-30T13:31:21.508Z,6.50
2023-01-30T13:33:51.936Z,7.72
2023-01-30T13:36:22.751Z,5.93
2023-01-30T13:41:54.044Z,8.43
2023-01-30T13:44:24.863Z,13.27
2023-01-30T13:46:54.651Z,9.85
2023-01-30T13:49:26.683Z,7.40
2023-01-30T13:52:14.520Z,7.45
2023-01-30T13:55:14.139Z,9.15
2023-01-30T13:57:55.438Z,8.23
2023-01-30T14:00:36.219Z,7.00
2023-01-30T14:03:06.116Z,10.10
2023-01-30T14:05:51.432Z,9.07
2023-01-30T14:08:25.480Z,8.57
2023-01-30T14:10:52.924Z,10.20
2023-01-30T14:13:19.848Z,7.55
2023-01-30T14:15:57.652Z,11.38
2023-01-30T14:18:30.775Z,10.50
2023-01-30T14:21:24.481Z,9.48
2023-01-30T14:24:01.537Z,9.43
2023-01-30T14:26:51.840Z,8.02
2023-01-30T14:29:49.455Z,12.70
2023-01-30T14:32:17.475Z,13.10
2023-01-30T14:35:03.928Z,11.23
2023-01-30T14:37:39.493Z,8.48
2023-01-30T14:40:22.145Z,12.05
2023-01-30T14:43:17.844Z,10.75
2023-01-30T14:45:54.936Z,7.55
2023-01-30T14:48:57.889Z,10.35
2023-01-30T14:51:31.406Z,9.85
2023-01-30T14:54:12.088Z,14.30
2023-01-30T14:56:42.024Z,7.50
2023-01-30T14:59:17.768Z,13.95
2023-01-30T15:02:01.796Z,10.70
2023-01-30T15:04:45.639Z,12.85
2023-01-30T15:10:09.692Z,11.57
2023-01-30T15:13:09.621Z,8.43
2023-01-30T15:15:58.620Z,11.73
2023-01-30T15:18:48.932Z,12.57
2023-01-30T15:21:41.763Z,7.93
2023-01-30T15:24:39.497Z,10.40
2023-01-30T15:27:28.074Z,12.75
2023-01-30T15:30:16.996Z,13.80
2023-01-30T15:32:44.871Z,11.18
2023-01-30T15:35:11.666Z,11.57
2023-01-30T15:37:39.741Z,11.98
2023-01-30T15:40:16.382Z,16.20
2023-01-30T15:42:50.134Z,13.65
2023-01-30T15:45:34.760Z,10.50
2023-01-30T15:48:26.351Z,12.38
2023-01-30T15:50:56.755Z,13.95
2023-01-30T15:53:29.049Z,14.32
2023-01-30T15:55:56.515Z,21.00
2023-01-30T15:58:24.907Z,10.68
2023-01-30T16:01:01.064Z,11.45
2023-01-30T16:03:34.407Z,11.15
2023-01-30T16:06:01.227Z,23.35
2023-01-30T16:08:33.398Z,14.30
2023-01-30T16:11:00.842Z,17.70
2023-01-30T16:13:29.406Z,16.55
2023-01-30T16:16:10.434Z,18.98
2023-01-30T16:18:57.596Z,17.85
2023-01-30T16:21:28.693Z,18.77
2023-01-30T16:24:24.788Z,19.15
2023-01-30T16:26:55.265Z,20.17
2023-01-30T16:29:25.941Z,21.70
2023-01-30T16:31:54.548Z,18.58
2023-01-30T16:34:31.971Z,23.67
2023-01-30T16:37:03.713Z,24.02
2023-01-30T16:39:37.901Z,30.08
2023-01-30T16:42:27.989Z,28.75
2023-01-30T16:45:11.289Z,21.80
2023-01-30T16:47:38.977Z,20.50
2023-01-30T16:50:22.959Z,24.05
2023-01-30T16:52:55.080Z,23.65
2023-01-30T16:58:01.481Z,22.67
2023-01-30T17:00:38.154Z,18.98
2023-01-30T17:03:31.758Z,20.90
2023-01-30T17:05:59.767Z,18.77
2023-01-30T17:08:49.596Z,21.75
2023-01-30T17:11:36.025Z,22.42
2023-01-30T17:14:19.206Z,23.52
2023-01-30T17:17:08.475Z,22.00
2023-01-30T17:19:36.159Z,25.65
2023-01-30T17:22:07.324Z,18.50
2023-01-30T17:24:35.719Z,29.10
2023-01-30T17:27:04.766Z,20.08
2023-01-30T17:29:49.114Z,22.15
2023-01-30T17:32:16.281Z,19.52
2023-01-30T17:34:43.560Z,17.42
2023-01-30T17:37:20.197Z,20.75
2023-01-30T17:39:48.041Z,23.45
2023-01-30T17:42:18.736Z,16.08
2023-01-30T17:44:45.455Z,18.27
2023-01-30T17:47:12.602Z,18.40
2023-01-30T17:49:39.653Z,23.55
2023-01-30T17:52:07.124Z,21.08
2023-01-30T17:54:34.083Z,22.55
2023-01-30T17:57:06.631Z,16.30
2023-01-30T17:59:33.859Z,16.60
2023-01-30T18:02:03.380Z,12.40
2023-01-30T18:04:30.769Z,19.67
2023-01-30T18:07:04.296Z,20.83
2023-01-30T18:09:31.827Z,13.88
2023-01-30T18:11:58.622Z,19.23
2023-01-30T18:14:25.457Z,17.20
2023-01-30T18:16:52.257Z,13.90
2023-01-30T18:19:23.838Z,15.35
2023-01-30T18:21:50.713Z,12.43
2023-01-30T18:24:18.470Z,15.50
2023-01-30T18:26:46.784Z,13.07
2023-01-30T18:29:14.260Z,12.75
2023-01-30T18:31:41.494Z,17.35
2023-01-30T18:34:10.808Z,17.77
2023-01-30T18:36:38.500Z,9.40
2023-01-30T18:39:06.314Z,17.77
2023-01-30T18:41:35.270Z,16.88
2023-01-30T18:44:04.433Z,19.45
2023-01-30T18:46:31.482Z,14.75
2023-01-30T18:48:59.175Z,22.85
2023-01-30T18:51:32.405Z,15.02
2023-01-30T18:54:00.605Z,21.08
2023-01-30T18:56:33.166Z,14.68
2023-01-30T18:59:03.844Z,17.77
2023-01-30T19:01:38.983Z,17.17
2023-01-30T19:04:07.835Z,16.50
2023-01-30T19:06:39.171Z,16.38
2023-01-30T19:09:06.429Z,16.02
2023-01-30T19:11:52.287Z,21.85
2023-01-30T19:14:19.216Z,13.85
2023-01-30T19:16:46.190Z,11.57
2023-01-30T19:19:13.586Z,14.07
2023-01-30T19:21:40.666Z,12.75
2023-01-30T19:24:12.801Z,11.80
2023-01-30T19:26:39.859Z,16.88
2023-01-30T19:29:06.760Z,11.25
2023-01-30T19:31:33.807Z,14.05
2023-01-30T19:34:02.670Z,12.48
2023-01-30T19:36:31.845Z,13.65
2023-01-30T19:39:00.067Z,7.63
2023-01-30T19:41:30.743Z,11.23
2023-01-30T19:43:59.575Z,14.70
2023-01-30T19:46:28.747Z,12.20
2023-01-30T19:48:55.937Z,15.38
2023-01-30T19:51:25.651Z,15.30
2023-01-30T19:53:56.838Z,15.57
2023-01-30T19:56:25.351Z,10.32
2023-01-30T19:58:55.117Z,15.15
2023-01-30T20:01:23.620Z,16.55
2023-01-30T20:03:51.070Z,18.63
2023-01-30T20:06:29.637Z,12.55
2023-01-30T20:09:05.395Z,14.38
2023-01-30T20:11:35.095Z,10.23
2023-01-30T20:14:02.361Z,16.77
2023-01-30T20:16:31.351Z,14.23
2023-01-30T20:19:04.430Z,10.38
2023-01-30T20:21:31.235Z,17.50
2023-01-30T20:23:59.902Z,10.90
2023-01-30T20:26:29.770Z,15.25
2023-01-30T20:28:57.574Z,16.73
2023-01-30T20:31:26.978Z,12.65
2023-01-30T20:33:57.500Z,16.25
2023-01-30T20:36:27.052Z,17.75
2023-01-30T20:38:55.988Z,16.50
2023-01-30T20:41:25.589Z,12.95
2023-01-30T20:43:56.564Z,13.68
2023-01-30T20:46:29.028Z,14.77
2023-01-30T20:48:58.064Z,15.32
2023-01-30T20:51:28.617Z,18.67
2023-01-30T20:54:00.634Z,13.23
2023-01-30T20:58:57.755Z,15.95
2023-01-30T21:01:24.776Z,13.93
2023-01-30T21:03:53.455Z,19.75
2023-01-30T21:06:41.491Z,15.63
2023-01-30T21:09:18.392Z,13.82
2023-01-30T21:11:45.802Z,20.30
2023-01-30T21:14:13.352Z,17.65
2023-01-30T21:16:40.980Z,15.23
2023-01-30T21:19:13.894Z,14.40
2023-01-30T21:21:52.740Z,17.05
2023-01-30T21:24:25.801Z,16.48
2023-01-30T21:26:52.999Z,14.98
2023-01-30T21:29:22.325Z,12.65
2023-01-30T21:31:49.217Z,15.90
2023-01-30T21:34:16.085Z,15.45
2023-01-30T21:36:42.765Z,19.65
2023-01-30T21:39:32.262Z,12.77
2023-01-30T21:42:17.353Z,11.32
2023-01-30T21:44:44.063Z,11.30
2023-01-30T21:47:10.763Z,20.52
2023-01-30T21:49:37.771Z,14.23
2023-01-30T21:52:04.777Z,17.92
2023-01-30T21:54:31.631Z,13.18
2023-01-30T21:56:58.640Z,11.65
2023-01-30T21:59:25.327Z,14.27
2023-01-30T22:01:52.258Z,20.00
2023-01-30T22:04:19.513Z,16.17
2023-01-30T22:06:46.158Z,18.15
2023-01-30T22:09:14.840Z,14.77
2023-01-30T22:11:42.049Z,17.95
2023-01-30T22:14:09.202Z,11.18
2023-01-30T22:16:36.300Z,23.58
2023-01-30T22:19:04.856Z,20.63
2023-01-30T22:21:35.047Z,14.02
2023-01-30T22:24:02.803Z,14.23
2023-01-30T22:26:30.085Z,13.60
2023-01-30T22:28:58.143Z,17.30
2023-01-30T22:31:26.482Z,13.38
2023-01-30T22:33:55.230Z,13.98
2023-01-30T22:36:27.489Z,11.55
2023-01-30T22:38:55.048Z,18.23
2023-01-30T22:41:23.724Z,17.00
2023-01-30T22:43:55.406Z,17.73
2023-01-30T22:46:28.117Z,17.65
2023-01-30T22:48:55.149Z,17.35
2023-01-30T22:51:24.131Z,13.00
2023-01-30T22:53:53.982Z,14.18
2023-01-30T22:56:29.803Z,14.75
2023-01-30T22:58:57.288Z,12.85
2023-01-30T23:01:25.455Z,13.68
2023-01-30T23:03:56.367Z,12.98
2023-01-30T23:06:23.750Z,11.40
2023-01-30T23:08:51.329Z,11.73
2023-01-30T23:11:40.458Z,21.50
2023-01-30T23:14:13.605Z,14.88
2023-01-30T23:16:43.198Z,13.93
2023-01-30T23:19:12.267Z,11.70
2023-01-30T23:21:45.391Z,11.35
2023-01-30T23:24:13.470Z,12.82
2023-01-30T23:26:42.735Z,19.50
2023-01-30T23:29:13.099Z,9.05
2023-01-30T23:31:41.156Z,14.65
2023-01-30T23:34:12.625Z,15.15
2023-01-30T23:36:40.024Z,12.98
2023-01-30T23:39:07.067Z,15.73
2023-01-30T23:41:36.410Z,12.82
2023-01-30T23:44:03.841Z,15.80
2023-01-30T23:46:33.658Z,24.30
2023-01-30T23:49:04.010Z,10.18
2023-01-30T23:51:32.385Z,11.57
2023-01-30T23:53:59.767Z,11.52
2023-01-30T23:56:28.701Z,12.63
2023-01-30T23:58:56.031Z,13.65
